sensor_id;sensor_type;location;lat;lon;timestamp;pressure;altitude;pressure_sealevel;temperature;humidity
62725;BME280;49026;52.600;4.694;2024-03-02T00:00:21;99694.19;;;7.96;80.64
62725;BME280;49026;52.600;4.694;2024-03-02T00:02:47;99676.50;;;8.02;79.96
62725;BME280;49026;52.600;4.694;2024-03-02T00:05:17;99691.06;;;8.07;80.35
62725;BME280;49026;52.600;4.694;2024-03-02T00:07:46;99733.75;;;8.08;80.44
62725;BME280;49026;52.600;4.694;2024-03-02T00:10:16;99730.63;;;7.82;81.71
62725;BME280;49026;52.600;4.694;2024-03-02T00:12:47;99727.06;;;7.45;84.24
62725;BME280;49026;52.600;4.694;2024-03-02T00:15:48;99697.91;;;7.15;87.40
62725;BME280;49026;52.600;4.694;2024-03-02T00:18:19;99720.47;;;6.97;90.18
62725;BME280;49026;52.600;4.694;2024-03-02T00:20:45;99728.63;;;6.89;91.47
62725;BME280;49026;52.600;4.694;2024-03-02T00:23:15;99730.72;;;6.81;93.01
62725;BME280;49026;52.600;4.694;2024-03-02T00:28:32;99733.03;;;6.66;93.89
62725;BME280;49026;52.600;4.694;2024-03-02T00:33:34;99743.41;;;6.47;93.94
62725;BME280;49026;52.600;4.694;2024-03-02T00:36:01;99742.25;;;6.33;95.88
62725;BME280;49026;52.600;4.694;2024-03-02T00:38:27;99736.56;;;6.23;97.26
62725;BME280;49026;52.600;4.694;2024-03-02T00:40:53;99735.97;;;6.16;98.31
62725;BME280;49026;52.600;4.694;2024-03-02T00:43:35;99759.50;;;6.15;98.68
62725;BME280;49026;52.600;4.694;2024-03-02T00:46:11;99762.31;;;6.10;100.00
62725;BME280;49026;52.600;4.694;2024-03-02T00:48:36;99776.19;;;6.10;100.00
62725;BME280;49026;52.600;4.694;2024-03-02T00:51:03;99773.63;;;6.09;100.00
62725;BME280;49026;52.600;4.694;2024-03-02T00:53:32;99763.31;;;6.06;100.00
62725;BME280;49026;52.600;4.694;2024-03-02T00:56:00;99773.84;;;6.03;100.00
62725;BME280;49026;52.600;4.694;2024-03-02T00:58:26;99768.75;;;6.00;100.00
62725;BME280;49026;52.600;4.694;2024-03-02T01:00:53;99777.66;;;5.94;100.00
62725;BME280;49026;52.600;4.694;2024-03-02T01:03:19;99769.19;;;5.87;100.00
62725;BME280;49026;52.600;4.694;2024-03-02T01:05:44;99778.00;;;5.85;100.00
62725;BME280;49026;52.600;4.694;2024-03-02T01:08:10;99769.41;;;5.81;100.00
62725;BME280;49026;52.600;4.694;2024-03-02T01:10:36;99773.00;;;5.79;100.00
62725;BME280;49026;52.600;4.694;2024-03-02T01:13:01;99792.16;;;5.78;100.00
62725;BME280;49026;52.600;4.694;2024-03-02T01:15:29;99787.91;;;5.75;100.00
62725;BME280;49026;52.600;4.694;2024-03-02T01:17:56;99782.81;;;5.72;100.00
62725;BME280;49026;52.600;4.694;2024-03-02T01:20:24;99782.94;;;5.69;100.00
62725;BME280;49026;52.600;4.694;2024-03-02T01:22:50;99785.53;;;5.69;100.00
62725;BME280;49026;52.600;4.694;2024-03-02T01:25:15;99781.22;;;5.68;100.00
62725;BME280;49026;52.600;4.694;2024-03-02T01:27:41;99785.63;;;5.66;100.00
62725;BME280;49026;52.600;4.694;2024-03-02T01:30:11;99778.81;;;5.63;100.00
62725;BME280;49026;52.600;4.694;2024-03-02T01:32:39;99768.44;;;5.62;100.00
62725;BME280;49026;52.600;4.694;2024-03-02T01:35:05;99774.53;;;5.61;100.00
62725;BME280;49026;52.600;4.694;2024-03-02T01:37:34;99781.50;;;5.60;100.00
62725;BME280;49026;52.600;4.694;2024-03-02T01:40:02;99771.31;;;5.54;100.00
62725;BME280;49026;52.600;4.694;2024-03-02T01:42:28;99770.47;;;5.53;100.00
62725;BME280;49026;52.600;4.694;2024-03-02T01:44:53;99771.41;;;5.51;100.00
62725;BME280;49026;52.600;4.694;2024-03-02T01:47:18;99781.84;;;5.51;100.00
62725;BME280;49026;52.600;4.694;2024-03-02T01:49:43;99777.66;;;5.47;100.00
62725;BME280;49026;52.600;4.694;2024-03-02T01:52:09;99803.75;;;5.45;100.00
62725;BME280;49026;52.600;4.694;2024-03-02T01:54:34;99809.97;;;5.41;100.00
62725;BME280;49026;52.600;4.694;2024-03-02T01:57:00;99812.63;;;5.39;100.00
62725;BME280;49026;52.600;4.694;2024-03-02T01:59:25;99810.03;;;5.39;100.00
62725;BME280;49026;52.600;4.694;2024-03-02T02:01:51;99816.22;;;5.37;100.00
62725;BME280;49026;52.600;4.694;2024-03-02T02:04:16;99830.19;;;5.34;100.00
62725;BME280;49026;52.600;4.694;2024-03-02T02:06:44;99825.00;;;5.33;100.00
62725;BME280;49026;52.600;4.694;2024-03-02T02:09:11;99818.13;;;5.32;100.00
62725;BME280;49026;52.600;4.694;2024-03-02T02:11:37;99812.91;;;5.32;100.00
62725;BME280;49026;52.600;4.694;2024-03-02T02:14:02;99812.13;;;5.30;100.00
62725;BME280;49026;52.600;4.694;2024-03-02T02:16:27;99822.59;;;5.28;100.00
62725;BME280;49026;52.600;4.694;2024-03-02T02:18:52;99809.81;;;5.20;100.00
62725;BME280;49026;52.600;4.694;2024-03-02T02:21:22;99802.94;;;5.19;100.00
62725;BME280;49026;52.600;4.694;2024-03-02T02:23:48;99830.84;;;5.14;100.00
62725;BME280;49026;52.600;4.694;2024-03-02T02:26:13;99840.53;;;5.11;100.00
62725;BME280;49026;52.600;4.694;2024-03-02T02:28:39;99837.97;;;5.09;100.00
62725;BME280;49026;52.600;4.694;2024-03-02T02:31:11;99828.53;;;5.07;100.00
62725;BME280;49026;52.600;4.694;2024-03-02T02:33:39;99830.44;;;5.01;100.00
62725;BME280;49026;52.600;4.694;2024-03-02T02:36:05;99827.09;;;4.98;100.00
62725;BME280;49026;52.600;4.694;2024-03-02T02:38:33;99826.31;;;4.94;100.00
62725;BME280;49026;52.600;4.694;2024-03-02T02:41:02;99833.44;;;4.89;100.00
62725;BME280;49026;52.600;4.694;2024-03-02T02:43:30;99835.16;;;4.90;100.00
62725;BME280;49026;52.600;4.694;2024-03-02T02:45:55;99839.47;;;4.91;100.00
62725;BME280;49026;52.600;4.694;2024-03-02T02:48:23;99844.66;;;4.91;100.00
62725;BME280;49026;52.600;4.694;2024-03-02T02:50:48;99844.66;;;4.91;100.00
62725;BME280;49026;52.600;4.694;2024-03-02T02:53:14;99841.16;;;4.92;100.00
62725;BME280;49026;52.600;4.694;2024-03-02T02:55:39;99848.81;;;4.97;100.00
62725;BME280;49026;52.600;4.694;2024-03-02T02:58:12;99840.91;;;5.00;100.00
62725;BME280;49026;52.600;4.694;2024-03-02T03:00:42;99847.78;;;5.01;100.00
62725;BME280;49026;52.600;4.694;2024-03-02T03:03:15;99844.25;;;5.04;100.00
62725;BME280;49026;52.600;4.694;2024-03-02T03:05:40;99847.66;;;5.06;100.00
62725;BME280;49026;52.600;4.694;2024-03-02T03:08:05;99834.59;;;5.07;100.00
62725;BME280;49026;52.600;4.694;2024-03-02T03:10:30;99841.41;;;5.11;100.00
62725;BME280;49026;52.600;4.694;2024-03-02T03:12:58;99842.16;;;5.15;100.00
62725;BME280;49026;52.600;4.694;2024-03-02T03:15:23;99846.34;;;5.19;100.00
62725;BME280;49026;52.600;4.694;2024-03-02T03:17:49;99848.94;;;5.19;100.00
62725;BME280;49026;52.600;4.694;2024-03-02T03:20:16;99848.84;;;5.22;100.00
62725;BME280;49026;52.600;4.694;2024-03-02T03:22:42;99853.94;;;5.25;100.00
62725;BME280;49026;52.600;4.694;2024-03-02T03:25:07;99852.97;;;5.28;100.00
62725;BME280;49026;52.600;4.694;2024-03-02T03:27:36;99859.91;;;5.29;100.00
62725;BME280;49026;52.600;4.694;2024-03-02T03:30:01;99857.28;;;5.29;100.00
62725;BME280;49026;52.600;4.694;2024-03-02T03:32:27;99847.63;;;5.32;100.00
62725;BME280;49026;52.600;4.694;2024-03-02T03:34:52;99853.63;;;5.34;100.00
62725;BME280;49026;52.600;4.694;2024-03-02T03:37:20;99865.75;;;5.35;100.00
62725;BME280;49026;52.600;4.694;2024-03-02T03:39:45;99856.19;;;5.36;100.00
62725;BME280;49026;52.600;4.694;2024-03-02T03:42:10;99863.06;;;5.38;100.00
62725;BME280;49026;52.600;4.694;2024-03-02T03:44:36;99858.69;;;5.39;100.00
62725;BME280;49026;52.600;4.694;2024-03-02T03:47:04;99862.22;;;5.38;100.00
62725;BME280;49026;52.600;4.694;2024-03-02T03:49:32;99860.50;;;5.37;100.00
62725;BME280;49026;52.600;4.694;2024-03-02T03:51:58;99860.44;;;5.38;100.00
62725;BME280;49026;52.600;4.694;2024-03-02T03:54:23;99864.88;;;5.36;100.00
62725;BME280;49026;52.600;4.694;2024-03-02T03:56:48;99863.09;;;5.37;100.00
62725;BME280;49026;52.600;4.694;2024-03-02T03:59:14;99867.56;;;5.33;100.00
62725;BME280;49026;52.600;4.694;2024-03-02T04:01:41;99872.88;;;5.30;100.00
62725;BME280;49026;52.600;4.694;2024-03-02T04:04:09;99873.72;;;5.31;100.00
62725;BME280;49026;52.600;4.694;2024-03-02T04:06:34;99863.34;;;5.29;100.00
62725;BME280;49026;52.600;4.694;2024-03-02T04:08:59;99878.13;;;5.29;100.00
62725;BME280;49026;52.600;4.694;2024-03-02T04:11:28;99887.88;;;5.24;100.00
62725;BME280;49026;52.600;4.694;2024-03-02T04:13:54;99887.16;;;5.18;100.00
62725;BME280;49026;52.600;4.694;2024-03-02T04:16:22;99884.66;;;5.15;100.00
62725;BME280;49026;52.600;4.694;2024-03-02T04:18:47;99889.88;;;5.15;100.00
62725;BME280;49026;52.600;4.694;2024-03-02T04:21:15;99891.69;;;5.13;100.00
62725;BME280;49026;52.600;4.694;2024-03-02T04:23:40;99891.72;;;5.12;100.00
62725;BME280;49026;52.600;4.694;2024-03-02T04:26:06;99889.16;;;5.10;100.00
62725;BME280;49026;52.600;4.694;2024-03-02T04:28:31;99897.78;;;5.12;100.00
62725;BME280;49026;52.600;4.694;2024-03-02T04:30:56;99898.66;;;5.13;100.00
62725;BME280;49026;52.600;4.694;2024-03-02T04:33:21;99896.88;;;5.13;100.00
62725;BME280;49026;52.600;4.694;2024-03-02T04:35:47;99897.06;;;5.07;100.00
62725;BME280;49026;52.600;4.694;2024-03-02T04:38:12;99899.81;;;5.03;100.00
62725;BME280;49026;52.600;4.694;2024-03-02T04:40:37;99895.69;;;4.97;100.00
62725;BME280;49026;52.600;4.694;2024-03-02T04:43:03;99904.59;;;4.90;100.00
62725;BME280;49026;52.600;4.694;2024-03-02T04:45:28;99909.13;;;4.83;100.00
62725;BME280;49026;52.600;4.694;2024-03-02T04:47:54;99904.03;;;4.80;100.00
62725;BME280;49026;52.600;4.694;2024-03-02T04:50:19;99906.75;;;4.75;100.00
62725;BME280;49026;52.600;4.694;2024-03-02T04:52:47;99910.38;;;4.71;100.00
62725;BME280;49026;52.600;4.694;2024-03-02T04:55:12;99908.94;;;4.61;100.00
62725;BME280;49026;52.600;4.694;2024-03-02T04:57:52;99901.34;;;4.55;100.00
62725;BME280;49026;52.600;4.694;2024-03-02T05:00:19;99911.06;;;4.48;100.00
62725;BME280;49026;52.600;4.694;2024-03-02T05:02:45;99908.72;;;4.39;100.00
62725;BME280;49026;52.600;4.694;2024-03-02T05:05:10;99908.78;;;4.37;100.00
62725;BME280;49026;52.600;4.694;2024-03-02T05:07:38;99911.56;;;4.31;100.00
62725;BME280;49026;52.600;4.694;2024-03-02T05:10:03;99915.09;;;4.29;100.00
62725;BME280;49026;52.600;4.694;2024-03-02T05:12:29;99914.31;;;4.26;100.00
62725;BME280;49026;52.600;4.694;2024-03-02T05:15:14;99916.91;;;4.26;100.00
62725;BME280;49026;52.600;4.694;2024-03-02T05:17:41;99926.59;;;4.21;100.00
62725;BME280;49026;52.600;4.694;2024-03-02T05:20:09;99935.31;;;4.19;100.00
62725;BME280;49026;52.600;4.694;2024-03-02T05:22:36;99934.59;;;4.14;100.00
62725;BME280;49026;52.600;4.694;2024-03-02T05:25:03;99926.84;;;4.12;100.00
62725;BME280;49026;52.600;4.694;2024-03-02T05:27:31;99926.00;;;4.12;100.00
62725;BME280;49026;52.600;4.694;2024-03-02T05:29:58;99927.78;;;4.10;100.00
62725;BME280;49026;52.600;4.694;2024-03-02T05:32:25;99930.47;;;4.06;100.00
62725;BME280;49026;52.600;4.694;2024-03-02T05:34:51;99930.50;;;4.05;100.00
62725;BME280;49026;52.600;4.694;2024-03-02T05:37:17;99937.41;;;4.06;100.00
62725;BME280;49026;52.600;4.694;2024-03-02T05:39:42;99941.66;;;4.08;100.00
62725;BME280;49026;52.600;4.694;2024-03-02T05:42:08;99948.59;;;4.10;100.00
62725;BME280;49026;52.600;4.694;2024-03-02T05:44:34;99957.09;;;4.15;100.00
62725;BME280;49026;52.600;4.694;2024-03-02T05:47:00;99951.91;;;4.15;100.00
62725;BME280;49026;52.600;4.694;2024-03-02T05:49:25;99958.03;;;4.12;100.00
62725;BME280;49026;52.600;4.694;2024-03-02T05:51:50;99963.22;;;4.12;100.00
62725;BME280;49026;52.600;4.694;2024-03-02T05:54:15;99961.59;;;4.10;100.00
62725;BME280;49026;52.600;4.694;2024-03-02T05:56:43;99970.06;;;4.16;100.00
62725;BME280;49026;52.600;4.694;2024-03-02T05:59:09;99962.94;;;4.23;100.00
62725;BME280;49026;52.600;4.694;2024-03-02T06:01:49;99960.13;;;4.31;100.00
62725;BME280;49026;52.600;4.694;2024-03-02T06:04:22;99961.66;;;4.38;100.00
62725;BME280;49026;52.600;4.694;2024-03-02T06:06:49;99961.44;;;4.45;100.00
62725;BME280;49026;52.600;4.694;2024-03-02T06:09:15;99966.47;;;4.52;100.00
62725;BME280;49026;52.600;4.694;2024-03-02T06:11:43;99961.09;;;4.58;100.00
62725;BME280;49026;52.600;4.694;2024-03-02T06:14:09;99960.88;;;4.64;100.00
62725;BME280;49026;52.600;4.694;2024-03-02T06:16:34;99967.69;;;4.70;100.00
62725;BME280;49026;52.600;4.694;2024-03-02T06:19:00;99961.47;;;4.74;100.00
62725;BME280;49026;52.600;4.694;2024-03-02T06:21:29;99969.97;;;4.79;100.00
62725;BME280;49026;52.600;4.694;2024-03-02T06:23:54;99969.06;;;4.81;100.00
62725;BME280;49026;52.600;4.694;2024-03-02T06:26:20;99968.03;;;4.86;100.00
62725;BME280;49026;52.600;4.694;2024-03-02T06:28:47;99968.84;;;4.88;100.00
62725;BME280;49026;52.600;4.694;2024-03-02T06:31:15;99963.63;;;4.88;100.00
62725;BME280;49026;52.600;4.694;2024-03-02T06:33:40;99973.97;;;4.91;100.00
62725;BME280;49026;52.600;4.694;2024-03-02T06:36:06;99975.59;;;4.95;100.00
62725;BME280;49026;52.600;4.694;2024-03-02T06:38:36;99986.84;;;4.95;100.00
62725;BME280;49026;52.600;4.694;2024-03-02T06:41:02;99984.94;;;5.00;100.00
62725;BME280;49026;52.600;4.694;2024-03-02T06:43:27;99984.78;;;5.07;100.00
62725;BME280;49026;52.600;4.694;2024-03-02T06:45:55;99989.00;;;5.09;100.00
62725;BME280;49026;52.600;4.694;2024-03-02T06:48:22;99991.63;;;5.09;100.00
62725;BME280;49026;52.600;4.694;2024-03-02T06:50:49;100003.72;;;5.12;100.00
62725;BME280;49026;52.600;4.694;2024-03-02T06:53:17;99997.63;;;5.13;100.00
62725;BME280;49026;52.600;4.694;2024-03-02T06:55:43;100001.84;;;5.15;100.00
62725;BME280;49026;52.600;4.694;2024-03-02T06:58:11;99999.13;;;5.20;100.00
62725;BME280;49026;52.600;4.694;2024-03-02T07:00:37;100003.16;;;5.29;100.00
62725;BME280;49026;52.600;4.694;2024-03-02T07:03:02;99998.66;;;5.34;100.00
62725;BME280;49026;52.600;4.694;2024-03-02T07:05:28;99998.75;;;5.31;98.48
62725;BME280;49026;52.600;4.694;2024-03-02T07:07:53;100002.38;;;5.27;97.80
62725;BME280;49026;52.600;4.694;2024-03-02T07:10:18;99997.34;;;5.20;97.26
62725;BME280;49026;52.600;4.694;2024-03-02T07:12:43;99992.31;;;5.14;96.72
62725;BME280;49026;52.600;4.694;2024-03-02T07:15:09;99996.03;;;5.07;97.78
62725;BME280;49026;52.600;4.694;2024-03-02T07:17:58;100005.59;;;5.07;97.75
62725;BME280;49026;52.600;4.694;2024-03-02T07:20:23;100012.56;;;5.06;97.61
62725;BME280;49026;52.600;4.694;2024-03-02T07:22:51;100016.78;;;5.10;98.88
62725;BME280;49026;52.600;4.694;2024-03-02T07:25:16;100009.72;;;5.14;98.66
62725;BME280;49026;52.600;4.694;2024-03-02T07:27:41;100021.72;;;5.19;98.60
62725;BME280;49026;52.600;4.694;2024-03-02T07:30:08;100018.09;;;5.24;97.61
62725;BME280;49026;52.600;4.694;2024-03-02T07:32:36;100016.16;;;5.30;97.48
62725;BME280;49026;52.600;4.694;2024-03-02T07:35:04;100019.41;;;5.37;97.40
62725;BME280;49026;52.600;4.694;2024-03-02T07:37:29;100027.84;;;5.45;96.63
62725;BME280;49026;52.600;4.694;2024-03-02T07:39:57;100031.91;;;5.54;96.24
62725;BME280;49026;52.600;4.694;2024-03-02T07:42:23;100025.63;;;5.60;94.52
62725;BME280;49026;52.600;4.694;2024-03-02T07:44:48;100028.97;;;5.65;92.94
62725;BME280;49026;52.600;4.694;2024-03-02T07:47:13;100029.47;;;5.74;93.46
62725;BME280;49026;52.600;4.694;2024-03-02T07:49:41;100025.47;;;5.91;93.61
62725;BME280;49026;52.600;4.694;2024-03-02T07:52:07;100033.50;;;6.11;91.68
62725;BME280;49026;52.600;4.694;2024-03-02T07:54:34;100029.84;;;6.41;90.18
62725;BME280;49026;52.600;4.694;2024-03-02T07:57:00;100034.53;;;6.56;87.57
62725;BME280;49026;52.600;4.694;2024-03-02T07:59:25;100037.59;;;6.67;87.43
62725;BME280;49026;52.600;4.694;2024-03-02T08:01:53;100033.09;;;6.71;86.79
62725;BME280;49026;52.600;4.694;2024-03-02T08:04:20;100037.66;;;6.66;85.55
62725;BME280;49026;52.600;4.694;2024-03-02T08:06:45;100042.97;;;6.63;86.18
62725;BME280;49026;52.600;4.694;2024-03-02T08:09:11;100048.19;;;6.63;86.43
62725;BME280;49026;52.600;4.694;2024-03-02T08:11:36;100041.34;;;6.60;84.56
62725;BME280;49026;52.600;4.694;2024-03-02T08:14:02;100054.88;;;6.72;85.45
62725;BME280;49026;52.600;4.694;2024-03-02T08:16:28;100049.38;;;7.01;85.17
62725;BME280;49026;52.600;4.694;2024-03-02T08:18:56;100039.94;;;7.21;83.22
62725;BME280;49026;52.600;4.694;2024-03-02T08:21:25;100047.50;;;7.29;82.52
62725;BME280;49026;52.600;4.694;2024-03-02T08:23:50;100038.66;;;7.53;82.06
62725;BME280;49026;52.600;4.694;2024-03-02T08:26:16;100043.34;;;7.88;81.86
62725;BME280;49026;52.600;4.694;2024-03-02T08:28:46;100051.75;;;7.96;77.80
62725;BME280;49026;52.600;4.694;2024-03-02T08:31:11;100031.72;;;7.95;78.16
62725;BME280;49026;52.600;4.694;2024-03-02T08:33:37;100028.72;;;8.04;79.41
62725;BME280;49026;52.600;4.694;2024-03-02T08:36:02;100039.91;;;8.08;79.61
62725;BME280;49026;52.600;4.694;2024-03-02T08:38:31;100033.53;;;7.93;78.43
62725;BME280;49026;52.600;4.694;2024-03-02T08:40:57;100033.34;;;7.97;78.92
62725;BME280;49026;52.600;4.694;2024-03-02T08:43:22;100037.94;;;8.13;78.91
62725;BME280;49026;52.600;4.694;2024-03-02T08:45:48;100035.16;;;8.37;76.91
62725;BME280;49026;52.600;4.694;2024-03-02T08:48:16;100021.94;;;8.60;73.25
62725;BME280;49026;52.600;4.694;2024-03-02T08:50:41;100023.34;;;8.07;74.98
62725;BME280;49026;52.600;4.694;2024-03-02T08:53:07;100026.34;;;7.98;75.91
62725;BME280;49026;52.600;4.694;2024-03-02T08:55:32;100031.06;;;7.90;78.08
62725;BME280;49026;52.600;4.694;2024-03-02T08:57:58;100041.19;;;8.59;76.13
62725;BME280;49026;52.600;4.694;2024-03-02T09:00:24;100046.31;;;8.81;75.71
62725;BME280;49026;52.600;4.694;2024-03-02T09:02:49;100037.09;;;9.30;70.21
62725;BME280;49026;52.600;4.694;2024-03-02T09:05:15;100043.66;;;9.57;70.39
62725;BME280;49026;52.600;4.694;2024-03-02T09:07:40;100034.53;;;9.82;68.93
62725;BME280;49026;52.600;4.694;2024-03-02T09:10:07;100042.06;;;9.53;66.94
62725;BME280;49026;52.600;4.694;2024-03-02T09:12:37;100051.31;;;9.43;70.14
62725;BME280;49026;52.600;4.694;2024-03-02T09:15:05;100043.88;;;9.70;69.26
62725;BME280;49026;52.600;4.694;2024-03-02T09:17:33;100054.00;;;9.78;72.07
62725;BME280;49026;52.600;4.694;2024-03-02T09:20:18;100046.75;;;10.00;69.47
62725;BME280;49026;52.600;4.694;2024-03-02T09:22:46;100035.00;;;10.25;69.63
62725;BME280;49026;52.600;4.694;2024-03-02T09:25:13;100034.34;;;10.55;67.75
62725;BME280;49026;52.600;4.694;2024-03-02T09:27:41;100040.91;;;10.64;69.64
62725;BME280;49026;52.600;4.694;2024-03-02T09:30:09;100043.81;;;10.75;66.86
62725;BME280;49026;52.600;4.694;2024-03-02T09:32:41;100043.06;;;10.89;64.40
62725;BME280;49026;52.600;4.694;2024-03-02T09:35:09;100045.34;;;10.95;65.23
62725;BME280;49026;52.600;4.694;2024-03-02T09:37:35;100038.16;;;10.83;65.42
62725;BME280;49026;52.600;4.694;2024-03-02T09:40:01;100042.97;;;10.90;67.90
62725;BME280;49026;52.600;4.694;2024-03-02T09:42:27;100039.94;;;11.14;62.81
62725;BME280;49026;52.600;4.694;2024-03-02T09:44:55;100029.84;;;11.06;63.74
62725;BME280;49026;52.600;4.694;2024-03-02T09:47:20;100043.84;;;11.07;64.51
62725;BME280;49026;52.600;4.694;2024-03-02T09:49:46;100036.47;;;11.13;62.39
62725;BME280;49026;52.600;4.694;2024-03-02T09:52:12;100038.69;;;11.21;65.54
62725;BME280;49026;52.600;4.694;2024-03-02T09:54:38;100045.13;;;11.31;65.09
62725;BME280;49026;52.600;4.694;2024-03-02T09:57:07;100040.59;;;11.49;62.07
62725;BME280;49026;52.600;4.694;2024-03-02T09:59:32;100051.19;;;11.64;68.61
62725;BME280;49026;52.600;4.694;2024-03-02T10:02:04;100051.81;;;11.83;62.11
62725;BME280;49026;52.600;4.694;2024-03-02T10:04:32;100054.34;;;12.01;58.45
62725;BME280;49026;52.600;4.694;2024-03-02T10:07:12;100057.19;;;11.98;58.23
62725;BME280;49026;52.600;4.694;2024-03-02T10:09:41;100054.53;;;11.98;64.29
62725;BME280;49026;52.600;4.694;2024-03-02T10:12:11;100050.38;;;11.94;59.31
62725;BME280;49026;52.600;4.694;2024-03-02T10:14:37;100066.16;;;11.94;62.73
62725;BME280;49026;52.600;4.694;2024-03-02T10:17:04;100060.31;;;11.89;56.99
62725;BME280;49026;52.600;4.694;2024-03-02T10:19:30;100043.41;;;11.46;58.98
62725;BME280;49026;52.600;4.694;2024-03-02T10:21:58;100061.72;;;11.00;67.01
62725;BME280;49026;52.600;4.694;2024-03-02T10:24:24;100073.22;;;10.82;66.59
62725;BME280;49026;52.600;4.694;2024-03-02T10:26:53;100064.28;;;11.18;65.17
62725;BME280;49026;52.600;4.694;2024-03-02T10:29:18;100067.25;;;11.43;62.88
62725;BME280;49026;52.600;4.694;2024-03-02T10:31:45;100061.56;;;11.51;63.50
62725;BME280;49026;52.600;4.694;2024-03-02T10:34:12;100071.66;;;11.89;61.30
62725;BME280;49026;52.600;4.694;2024-03-02T10:36:43;100062.06;;;12.04;58.01
62725;BME280;49026;52.600;4.694;2024-03-02T10:39:16;100055.75;;;12.37;62.08
62725;BME280;49026;52.600;4.694;2024-03-02T10:41:45;100064.88;;;12.74;62.47
62725;BME280;49026;52.600;4.694;2024-03-02T10:44:12;100056.69;;;12.93;55.74
62725;BME280;49026;52.600;4.694;2024-03-02T10:46:38;100061.28;;;12.61;58.49
62725;BME280;49026;52.600;4.694;2024-03-02T10:49:05;100053.31;;;12.77;59.68
62725;BME280;49026;52.600;4.694;2024-03-02T10:51:33;100056.31;;;12.85;56.82
62725;BME280;49026;52.600;4.694;2024-03-02T10:53:59;100048.19;;;13.03;55.94
62725;BME280;49026;52.600;4.694;2024-03-02T10:56:38;100045.81;;;13.12;54.59
62725;BME280;49026;52.600;4.694;2024-03-02T10:59:33;100046.63;;;13.27;55.71
62725;BME280;49026;52.600;4.694;2024-03-02T11:02:00;100043.03;;;13.43;56.57
62725;BME280;49026;52.600;4.694;2024-03-02T11:04:28;100052.66;;;13.44;50.95
62725;BME280;49026;52.600;4.694;2024-03-02T11:07:14;100045.47;;;13.46;50.73
62725;BME280;49026;52.600;4.694;2024-03-02T11:09:59;100044.13;;;13.53;55.59
62725;BME280;49026;52.600;4.694;2024-03-02T11:12:36;100036.78;;;13.98;59.24
62725;BME280;49026;52.600;4.694;2024-03-02T11:15:10;100034.91;;;13.73;50.74
62725;BME280;49026;52.600;4.694;2024-03-02T11:17:40;100038.81;;;13.67;51.11
62725;BME280;49026;52.600;4.694;2024-03-02T11:20:07;100027.53;;;13.78;54.79
62725;BME280;49026;52.600;4.694;2024-03-02T11:22:38;100033.13;;;13.74;52.54
62725;BME280;49026;52.600;4.694;2024-03-02T11:25:04;100033.81;;;13.90;50.84
62725;BME280;49026;52.600;4.694;2024-03-02T11:33:04;100046.72;;;14.20;58.12
62725;BME280;49026;52.600;4.694;2024-03-02T11:35:43;100015.44;;;14.27;49.21
62725;BME280;49026;52.600;4.694;2024-03-02T11:38:14;100039.00;;;14.17;49.15
62725;BME280;49026;52.600;4.694;2024-03-02T11:40:39;100030.88;;;14.20;55.26
62725;BME280;49026;52.600;4.694;2024-03-02T11:43:06;100025.56;;;14.33;49.40
62725;BME280;49026;52.600;4.694;2024-03-02T11:45:35;100035.63;;;14.41;49.57
62725;BME280;49026;52.600;4.694;2024-03-02T11:48:05;100037.44;;;14.40;55.13
62725;BME280;49026;52.600;4.694;2024-03-02T11:50:36;100034.59;;;14.43;48.07
62725;BME280;49026;52.600;4.694;2024-03-02T11:53:06;100021.34;;;14.56;47.61
62725;BME280;49026;52.600;4.694;2024-03-02T11:55:36;100029.81;;;14.74;51.57
62725;BME280;49026;52.600;4.694;2024-03-02T11:58:03;100028.56;;;14.67;55.63
62725;BME280;49026;52.600;4.694;2024-03-02T12:00:29;100021.97;;;14.86;57.02
62725;BME280;49026;52.600;4.694;2024-03-02T12:03:05;100017.09;;;14.92;47.16
62725;BME280;49026;52.600;4.694;2024-03-02T12:05:36;100025.88;;;14.93;45.83
62725;BME280;49026;52.600;4.694;2024-03-02T12:08:11;100023.69;;;14.35;52.74
62725;BME280;49026;52.600;4.694;2024-03-02T12:10:37;100008.47;;;14.52;47.16
62725;BME280;49026;52.600;4.694;2024-03-02T12:13:13;100005.59;;;14.55;44.76
62725;BME280;49026;52.600;4.694;2024-03-02T12:15:39;100012.72;;;14.67;46.88
62725;BME280;49026;52.600;4.694;2024-03-02T12:18:07;100012.91;;;14.77;45.51
62725;BME280;49026;52.600;4.694;2024-03-02T12:20:33;100017.75;;;14.83;46.86
62725;BME280;49026;52.600;4.694;2024-03-02T12:23:00;100003.56;;;14.97;44.36
62725;BME280;49026;52.600;4.694;2024-03-02T12:25:26;100003.09;;;15.03;47.84
62725;BME280;49026;52.600;4.694;2024-03-02T12:27:54;100008.03;;;15.21;45.15
62725;BME280;49026;52.600;4.694;2024-03-02T12:30:21;99998.13;;;15.35;50.78
62725;BME280;49026;52.600;4.694;2024-03-02T12:32:47;99992.63;;;15.50;44.48
62725;BME280;49026;52.600;4.694;2024-03-02T12:35:13;99982.81;;;15.63;43.11
62725;BME280;49026;52.600;4.694;2024-03-02T12:37:46;99988.38;;;15.12;51.51
62725;BME280;49026;52.600;4.694;2024-03-02T12:40:13;99988.22;;;14.89;44.59
62725;BME280;49026;52.600;4.694;2024-03-02T12:42:39;99978.84;;;15.09;43.06
62725;BME280;49026;52.600;4.694;2024-03-02T12:45:06;99979.19;;;15.29;46.39
62725;BME280;49026;52.600;4.694;2024-03-02T12:47:33;99966.34;;;15.35;43.98
62725;BME280;49026;52.600;4.694;2024-03-02T12:49:59;99964.94;;;15.43;41.70
62725;BME280;49026;52.600;4.694;2024-03-02T12:52:24;99959.78;;;15.52;42.74
62725;BME280;49026;52.600;4.694;2024-03-02T12:54:49;99963.22;;;15.66;50.22
62725;BME280;49026;52.600;4.694;2024-03-02T12:57:21;99966.97;;;15.74;49.18
62725;BME280;49026;52.600;4.694;2024-03-02T12:59:48;99958.94;;;15.76;43.09
62725;BME280;49026;52.600;4.694;2024-03-02T13:02:17;99963.78;;;15.93;45.96
62725;BME280;49026;52.600;4.694;2024-03-02T13:04:43;99962.00;;;15.94;43.39
62725;BME280;49026;52.600;4.694;2024-03-02T13:07:10;99961.75;;;15.97;40.17
62725;BME280;49026;52.600;4.694;2024-03-02T13:09:35;99950.78;;;15.90;42.05